»·PEaware :: N25SC KMRY-KSFO

N25SC :: KMRY-KSFO

FLIGHT INFORMATION

Flight Status: Arrived
Operator: Privately registered:
United States
More flights under this callsign
Pilot: Anonymous 10181 (10181)
Aircraft: PIPER PA-28 CHEROKEE ARCHER
(P28A)
More flights by this aircraft type
Origin: KMRY Monterey Peninsula
United States
Destination: KSFO San Francisco Intl
United States
More flights between these airports :: More routes between these airports
Route: MRY5 SHOEY OSI
File this flight plan on PilotEdge
Remarks: Happy Holidays to all my friends at PilotEdge! You're the best!
Altitude:
(Current/Filed)
6,000ft
Speed:
(Current/Filed)
100kts
Departed: 24-Dec-21 07:56 PM
Arrived: 24-Dec-21 08:46 PM
Distance/Time
Traveled:
68nm/0:50
Distance/Time
To Go:
Arrived

Flight Plot

Page will automatically refresh every two minutes.

Flight plan parsing failed; only flown route is shown


Map Options




Map Legend


Flown Route
Filed Route
Departure Airport
Arrival Airport
Navaid (VOR, NDB)
Fix

Horizontal Profiles

Position Reports

Time Latitude Longitude Heading Altitude Ground
Speed
24-Dec-21 19:39 36.587767 -121.839181 276 227ft 0kts
24-Dec-21 19:40 36.587767 -121.839181 276 227ft 0kts
24-Dec-21 19:41 36.587767 -121.839181 276 227ft 0kts
24-Dec-21 19:42 36.587767 -121.839181 276 227ft 0kts
24-Dec-21 19:43 36.587767 -121.839181 276 227ft 0kts
24-Dec-21 19:44 36.587767 -121.839181 276 227ft 0kts
24-Dec-21 19:45 36.587767 -121.839181 276 227ft 0kts
24-Dec-21 19:46 36.587767 -121.839181 276 227ft 0kts
24-Dec-21 19:47 36.587767 -121.839181 276 227ft 0kts
24-Dec-21 19:48 36.587767 -121.839181 276 227ft 0kts
24-Dec-21 19:49 36.587800 -121.840181 239 222ft 0kts
24-Dec-21 19:50 36.587800 -121.840181 239 222ft 0kts
24-Dec-21 19:51 36.587989 -121.841500 293 216ft 12kts
24-Dec-21 19:52 36.588938 -121.844336 250 202ft 0kts
24-Dec-21 19:53 36.588915 -121.844392 234 202ft 3kts
24-Dec-21 19:54 36.588546 -121.844465 112 203ft 9kts
24-Dec-21 19:55 36.580737 -121.822215 111 777ft 84kts
24-Dec-21 19:56 36.593271 -121.810213 336 1644ft 83kts
24-Dec-21 19:57 36.616133 -121.818222 333 2441ft 87kts
24-Dec-21 19:58 36.638944 -121.827982 348 3217ft 87kts
24-Dec-21 19:59 36.662654 -121.836531 339 3916ft 90kts
24-Dec-21 20:00 36.686531 -121.845665 340 4587ft 90kts
24-Dec-21 20:01 36.711457 -121.850259 7 5177ft 92kts
24-Dec-21 20:02 36.723255 -121.870460 264 5785ft 92kts
24-Dec-21 20:03 36.720078 -121.902441 267 6318ft 102kts
24-Dec-21 20:04 36.723310 -121.943287 277 6082ft 120kts
24-Dec-21 20:05 36.729698 -121.982560 287 5928ft 112kts
24-Dec-21 20:06 36.747473 -122.011310 332 5872ft 108kts
24-Dec-21 20:07 36.773704 -122.026724 333 5987ft 102kts
24-Dec-21 20:08 36.800822 -122.037216 350 6051ft 103kts
24-Dec-21 20:09 36.828556 -122.049196 339 6057ft 106kts
24-Dec-21 20:10 36.856304 -122.062514 338 6058ft 107kts
24-Dec-21 20:11 36.883989 -122.076190 338 6059ft 107kts
24-Dec-21 20:12 36.911683 -122.090070 337 6058ft 107kts
24-Dec-21 20:13 36.939294 -122.104003 337 6058ft 107kts
24-Dec-21 20:14 36.966944 -122.117990 337 6059ft 107kts
24-Dec-21 20:15 36.994559 -122.131957 337 6058ft 107kts
24-Dec-21 20:16 37.022278 -122.145730 339 6058ft 107kts
24-Dec-21 20:17 37.050193 -122.158358 341 6058ft 106kts
24-Dec-21 20:18 37.078817 -122.168340 346 6058ft 106kts
24-Dec-21 20:19 37.107708 -122.176632 347 6058ft 106kts
24-Dec-21 20:20 37.136642 -122.184869 347 6053ft 106kts
24-Dec-21 20:21 37.167964 -122.193881 346 5696ft 118kts
24-Dec-21 20:22 37.199896 -122.205683 341 5330ft 119kts
24-Dec-21 20:23 37.231371 -122.219493 339 4988ft 118kts
24-Dec-21 20:24 37.260316 -122.233117 339 4990ft 108kts
24-Dec-21 20:25 37.288465 -122.246409 339 4988ft 107kts
24-Dec-21 20:26 37.317266 -122.255958 351 4988ft 107kts
24-Dec-21 20:27 37.347044 -122.258043 341 4715ft 105kts
24-Dec-21 20:28 37.375647 -122.265820 338 4387ft 105kts
24-Dec-21 20:29 37.404053 -122.271936 7 3877ft 112kts
24-Dec-21 20:30 37.430007 -122.249085 30 4025ft 115kts
24-Dec-21 20:31 37.454917 -122.220489 39 3978ft 132kts
24-Dec-21 20:32 37.481493 -122.186118 42 3306ft 134kts
24-Dec-21 20:33 37.509956 -122.157017 24 2606ft 130kts
24-Dec-21 20:34 37.536727 -122.167642 286 2031ft 107kts
24-Dec-21 20:35 37.547221 -122.199619 286 1917ft 94kts
24-Dec-21 20:36 37.557502 -122.229486 292 1853ft 90kts
24-Dec-21 20:37 37.569026 -122.257746 293 1821ft 90kts
24-Dec-21 20:38 37.581174 -122.285381 288 1796ft 90kts
24-Dec-21 20:39 37.578905 -122.312588 232 1718ft 84kts
24-Dec-21 20:40 37.575022 -122.340430 267 1497ft 81kts
24-Dec-21 20:41 37.577423 -122.367635 291 1375ft 81kts
24-Dec-21 20:42 37.587904 -122.392246 314 1020ft 81kts
24-Dec-21 20:43 37.607702 -122.383013 32 91ft 73kts
24-Dec-21 20:44 37.620689 -122.374472 27 8ft 46kts
24-Dec-21 20:45 37.622390 -122.374548 304 9ft 0kts
24-Dec-21 20:46 37.625507 -122.382020 296 9ft 32kts
24-Dec-21 20:47 37.627933 -122.382156 348 6ft 23kts
24-Dec-21 20:48 37.628609 -122.381791 78 5ft 0kts

Navigation Log

Ident Type
Flight plan parsing failed, navigation log unavailable